<?xml version="1.0" encoding="UTF-8" standalone="no" ?>
<gpx xmlns="http://www.topografix.com/GPX/1/1" xmlns:xsi="http://www.w3.org/2001/XMLSchema-instance" xsi:schemaLocation="http://www.topografix.com/GPX/1/1 http://www.topografix.com/GPX/1/1/gpx.xsd" version="1.1" creator="VisuGPX - https://www.visugpx.com">
  <metadata>
    <name>2023-03-20-46-Crayssac</name>
    <desc><![CDATA[Randonnée de 24 km autour de Crayssac avec un fort dénivelé positif de plus de 650m. De belles collines à gravir avec son lot de points de vue sur la vallée, quelques hameaux à traverser]]></desc>
  </metadata>
  <trk>
    <name><![CDATA[Crayssac-15914617]]></name>
    <trkseg>
      <trkpt lat="44.49244" lon="1.33098">
        <ele>111</ele>
        <time>2023-03-14T13:09:30Z</time>
      </trkpt>
      <trkpt lat="44.49257" lon="1.33157">
        <ele>113</ele>
        <time>2023-03-14T13:10:29Z</time>
      </trkpt>
      <trkpt lat="44.49249" lon="1.33204">
        <ele>116</ele>
        <time>2023-03-14T13:11:15Z</time>
      </trkpt>
      <trkpt lat="44.49233" lon="1.33285">
        <ele>120</ele>
        <time>2023-03-14T13:12:35Z</time>
      </trkpt>
      <trkpt lat="44.49307" lon="1.33269">
        <ele>121</ele>
        <time>2023-03-14T13:14:15Z</time>
      </trkpt>
      <trkpt lat="44.49356" lon="1.33389">
        <ele>128</ele>
        <time>2023-03-14T13:16:26Z</time>
      </trkpt>
      <trkpt lat="44.49409" lon="1.33457">
        <ele>134</ele>
        <time>2023-03-14T13:18:02Z</time>
      </trkpt>
      <trkpt lat="44.49445" lon="1.3357">
        <ele>138</ele>
        <time>2023-03-14T13:20:00Z</time>
      </trkpt>
      <trkpt lat="44.49442" lon="1.33642">
        <ele>140</ele>
        <time>2023-03-14T13:21:09Z</time>
      </trkpt>
      <trkpt lat="44.49429" lon="1.33687">
        <ele>139</ele>
        <time>2023-03-14T13:21:55Z</time>
      </trkpt>
      <trkpt lat="44.49384" lon="1.33727">
        <ele>137</ele>
        <time>2023-03-14T13:23:06Z</time>
      </trkpt>
      <trkpt lat="44.49364" lon="1.33775">
        <ele>140</ele>
        <time>2023-03-14T13:23:59Z</time>
      </trkpt>
      <trkpt lat="44.49365" lon="1.33841">
        <ele>142</ele>
        <time>2023-03-14T13:25:02Z</time>
      </trkpt>
      <trkpt lat="44.49399" lon="1.33922">
        <ele>145</ele>
        <time>2023-03-14T13:26:31Z</time>
      </trkpt>
      <trkpt lat="44.49431" lon="1.33921">
        <ele>147</ele>
        <time>2023-03-14T13:27:14Z</time>
      </trkpt>
      <trkpt lat="44.495" lon="1.33958">
        <ele>157</ele>
        <time>2023-03-14T13:28:52Z</time>
      </trkpt>
      <trkpt lat="44.49672" lon="1.33892">
        <ele>184</ele>
        <time>2023-03-14T13:32:50Z</time>
      </trkpt>
      <trkpt lat="44.49699" lon="1.33913">
        <ele>185</ele>
        <time>2023-03-14T13:33:32Z</time>
      </trkpt>
      <trkpt lat="44.49757" lon="1.33896">
        <ele>196</ele>
        <time>2023-03-14T13:34:51Z</time>
      </trkpt>
      <trkpt lat="44.4988" lon="1.33967">
        <ele>220</ele>
        <time>2023-03-14T13:37:48Z</time>
      </trkpt>
      <trkpt lat="44.49902" lon="1.33961">
        <ele>225</ele>
        <time>2023-03-14T13:38:18Z</time>
      </trkpt>
      <trkpt lat="44.4991" lon="1.33989">
        <ele>226</ele>
        <time>2023-03-14T13:38:47Z</time>
      </trkpt>
      <trkpt lat="44.49858" lon="1.34036">
        <ele>223</ele>
        <time>2023-03-14T13:40:09Z</time>
      </trkpt>
      <trkpt lat="44.4989" lon="1.34056">
        <ele>231</ele>
        <time>2023-03-14T13:40:56Z</time>
      </trkpt>
      <trkpt lat="44.49856" lon="1.3409">
        <ele>230</ele>
        <time>2023-03-14T13:41:52Z</time>
      </trkpt>
      <trkpt lat="44.49849" lon="1.34129">
        <ele>233</ele>
        <time>2023-03-14T13:42:30Z</time>
      </trkpt>
      <trkpt lat="44.4989" lon="1.3414">
        <ele>242</ele>
        <time>2023-03-14T13:43:26Z</time>
      </trkpt>
      <trkpt lat="44.49923" lon="1.34249">
        <ele>254</ele>
        <time>2023-03-14T13:45:19Z</time>
      </trkpt>
      <trkpt lat="44.49992" lon="1.34371">
        <ele>254</ele>
        <time>2023-03-14T13:47:47Z</time>
      </trkpt>
      <trkpt lat="44.50034" lon="1.34404">
        <ele>254</ele>
        <time>2023-03-14T13:48:51Z</time>
      </trkpt>
      <trkpt lat="44.50077" lon="1.34483">
        <ele>256</ele>
        <time>2023-03-14T13:50:26Z</time>
      </trkpt>
      <trkpt lat="44.50165" lon="1.34662">
        <ele>259</ele>
        <time>2023-03-14T13:53:53Z</time>
      </trkpt>
      <trkpt lat="44.50223" lon="1.34775">
        <ele>265</ele>
        <time>2023-03-14T13:56:05Z</time>
      </trkpt>
      <trkpt lat="44.50256" lon="1.34871">
        <ele>270</ele>
        <time>2023-03-14T13:57:46Z</time>
      </trkpt>
      <trkpt lat="44.50277" lon="1.34878">
        <ele>271</ele>
        <time>2023-03-14T13:58:15Z</time>
      </trkpt>
      <trkpt lat="44.50243" lon="1.34934">
        <ele>267</ele>
        <time>2023-03-14T13:59:25Z</time>
      </trkpt>
      <trkpt lat="44.5015" lon="1.3499">
        <ele>253</ele>
        <time>2023-03-14T14:01:40Z</time>
      </trkpt>
      <trkpt lat="44.50087" lon="1.35023">
        <ele>243</ele>
        <time>2023-03-14T14:03:10Z</time>
      </trkpt>
      <trkpt lat="44.50075" lon="1.35045">
        <ele>242</ele>
        <time>2023-03-14T14:03:36Z</time>
      </trkpt>
      <trkpt lat="44.50055" lon="1.35048">
        <ele>243</ele>
        <time>2023-03-14T14:04:03Z</time>
      </trkpt>
      <trkpt lat="44.49802" lon="1.35156">
        <ele>239</ele>
        <time>2023-03-14T14:09:56Z</time>
      </trkpt>
      <trkpt lat="44.49638" lon="1.35172">
        <ele>213</ele>
        <time>2023-03-14T14:13:36Z</time>
      </trkpt>
      <trkpt lat="44.49602" lon="1.35166">
        <ele>208</ele>
        <time>2023-03-14T14:14:24Z</time>
      </trkpt>
      <trkpt lat="44.49476" lon="1.35177">
        <ele>185</ele>
        <time>2023-03-14T14:17:12Z</time>
      </trkpt>
      <trkpt lat="44.49443" lon="1.35165">
        <ele>179</ele>
        <time>2023-03-14T14:17:58Z</time>
      </trkpt>
      <trkpt lat="44.49456" lon="1.35202">
        <ele>175</ele>
        <time>2023-03-14T14:18:37Z</time>
      </trkpt>
      <trkpt lat="44.49469" lon="1.35232">
        <ele>172</ele>
        <time>2023-03-14T14:19:11Z</time>
      </trkpt>
      <trkpt lat="44.49479" lon="1.35266">
        <ele>168</ele>
        <time>2023-03-14T14:19:46Z</time>
      </trkpt>
      <trkpt lat="44.49496" lon="1.35298">
        <ele>166</ele>
        <time>2023-03-14T14:20:24Z</time>
      </trkpt>
      <trkpt lat="44.49518" lon="1.35333">
        <ele>167</ele>
        <time>2023-03-14T14:21:08Z</time>
      </trkpt>
      <trkpt lat="44.49541" lon="1.35383">
        <ele>171</ele>
        <time>2023-03-14T14:22:05Z</time>
      </trkpt>
      <trkpt lat="44.49578" lon="1.35466">
        <ele>174</ele>
        <time>2023-03-14T14:23:38Z</time>
      </trkpt>
      <trkpt lat="44.49661" lon="1.35676">
        <ele>168</ele>
        <time>2023-03-14T14:27:26Z</time>
      </trkpt>
      <trkpt lat="44.49724" lon="1.35775">
        <ele>161</ele>
        <time>2023-03-14T14:29:33Z</time>
      </trkpt>
      <trkpt lat="44.49916" lon="1.36248">
        <ele>141</ele>
        <time>2023-03-14T14:38:11Z</time>
      </trkpt>
      <trkpt lat="44.49994" lon="1.36259">
        <ele>145</ele>
        <time>2023-03-14T14:39:55Z</time>
      </trkpt>
      <trkpt lat="44.50036" lon="1.36244">
        <ele>144</ele>
        <time>2023-03-14T14:40:53Z</time>
      </trkpt>
      <trkpt lat="44.50059" lon="1.36205">
        <ele>145</ele>
        <time>2023-03-14T14:41:41Z</time>
      </trkpt>
      <trkpt lat="44.50103" lon="1.36167">
        <ele>144</ele>
        <time>2023-03-14T14:42:50Z</time>
      </trkpt>
      <trkpt lat="44.50183" lon="1.3573">
        <ele>151</ele>
        <time>2023-03-14T14:50:00Z</time>
      </trkpt>
      <trkpt lat="44.50259" lon="1.35728">
        <ele>150</ele>
        <time>2023-03-14T14:51:41Z</time>
      </trkpt>
      <trkpt lat="44.50309" lon="1.35773">
        <ele>158</ele>
        <time>2023-03-14T14:53:00Z</time>
      </trkpt>
      <trkpt lat="44.50398" lon="1.35917">
        <ele>183</ele>
        <time>2023-03-14T14:56:02Z</time>
      </trkpt>
      <trkpt lat="44.50432" lon="1.35925">
        <ele>189</ele>
        <time>2023-03-14T14:56:48Z</time>
      </trkpt>
      <trkpt lat="44.50446" lon="1.35905">
        <ele>190</ele>
        <time>2023-03-14T14:57:14Z</time>
      </trkpt>
      <trkpt lat="44.50445" lon="1.35834">
        <ele>187</ele>
        <time>2023-03-14T14:58:22Z</time>
      </trkpt>
      <trkpt lat="44.50458" lon="1.35794">
        <ele>187</ele>
        <time>2023-03-14T14:59:04Z</time>
      </trkpt>
      <trkpt lat="44.50514" lon="1.35803">
        <ele>194</ele>
        <time>2023-03-14T15:00:19Z</time>
      </trkpt>
      <trkpt lat="44.50567" lon="1.35846">
        <ele>203</ele>
        <time>2023-03-14T15:01:41Z</time>
      </trkpt>
      <trkpt lat="44.50645" lon="1.35878">
        <ele>203</ele>
        <time>2023-03-14T15:03:29Z</time>
      </trkpt>
      <trkpt lat="44.50684" lon="1.35872">
        <ele>203</ele>
        <time>2023-03-14T15:04:22Z</time>
      </trkpt>
      <trkpt lat="44.50804" lon="1.35794">
        <ele>213</ele>
        <time>2023-03-14T15:07:18Z</time>
      </trkpt>
      <trkpt lat="44.50942" lon="1.35687">
        <ele>221</ele>
        <time>2023-03-14T15:10:49Z</time>
      </trkpt>
      <trkpt lat="44.51063" lon="1.35616">
        <ele>227</ele>
        <time>2023-03-14T15:13:44Z</time>
      </trkpt>
      <trkpt lat="44.51143" lon="1.35565">
        <ele>233</ele>
        <time>2023-03-14T15:15:41Z</time>
      </trkpt>
      <trkpt lat="44.51231" lon="1.35468">
        <ele>242</ele>
        <time>2023-03-14T15:18:10Z</time>
      </trkpt>
      <trkpt lat="44.51358" lon="1.35347">
        <ele>256</ele>
        <time>2023-03-14T15:21:35Z</time>
      </trkpt>
      <trkpt lat="44.51359" lon="1.35303">
        <ele>258</ele>
        <time>2023-03-14T15:22:17Z</time>
      </trkpt>
      <trkpt lat="44.51348" lon="1.35257">
        <ele>259</ele>
        <time>2023-03-14T15:23:03Z</time>
      </trkpt>
      <trkpt lat="44.51341" lon="1.35205">
        <ele>262</ele>
        <time>2023-03-14T15:23:53Z</time>
      </trkpt>
      <trkpt lat="44.51335" lon="1.35178">
        <ele>263</ele>
        <time>2023-03-14T15:24:20Z</time>
      </trkpt>
      <trkpt lat="44.51333" lon="1.35138">
        <ele>266</ele>
        <time>2023-03-14T15:24:59Z</time>
      </trkpt>
      <trkpt lat="44.51329" lon="1.35105">
        <ele>269</ele>
        <time>2023-03-14T15:25:30Z</time>
      </trkpt>
      <trkpt lat="44.51321" lon="1.35063">
        <ele>271</ele>
        <time>2023-03-14T15:26:12Z</time>
      </trkpt>
      <trkpt lat="44.51313" lon="1.35028">
        <ele>273</ele>
        <time>2023-03-14T15:26:47Z</time>
      </trkpt>
      <trkpt lat="44.51306" lon="1.34984">
        <ele>275</ele>
        <time>2023-03-14T15:27:30Z</time>
      </trkpt>
      <trkpt lat="44.51301" lon="1.34939">
        <ele>277</ele>
        <time>2023-03-14T15:28:13Z</time>
      </trkpt>
      <trkpt lat="44.51309" lon="1.34901">
        <ele>280</ele>
        <time>2023-03-14T15:28:51Z</time>
      </trkpt>
      <trkpt lat="44.51312" lon="1.34855">
        <ele>281</ele>
        <time>2023-03-14T15:29:35Z</time>
      </trkpt>
      <trkpt lat="44.51319" lon="1.3481">
        <ele>283</ele>
        <time>2023-03-14T15:30:18Z</time>
      </trkpt>
      <trkpt lat="44.5133" lon="1.34757">
        <ele>287</ele>
        <time>2023-03-14T15:31:11Z</time>
      </trkpt>
      <trkpt lat="44.51342" lon="1.34703">
        <ele>289</ele>
        <time>2023-03-14T15:32:05Z</time>
      </trkpt>
      <trkpt lat="44.51335" lon="1.3466">
        <ele>289</ele>
        <time>2023-03-14T15:32:47Z</time>
      </trkpt>
      <trkpt lat="44.51336" lon="1.34608">
        <ele>291</ele>
        <time>2023-03-14T15:33:36Z</time>
      </trkpt>
      <trkpt lat="44.51078" lon="1.34541">
        <ele>298</ele>
        <time>2023-03-14T15:39:26Z</time>
      </trkpt>
      <trkpt lat="44.5103" lon="1.34595">
        <ele>294</ele>
        <time>2023-03-14T15:40:49Z</time>
      </trkpt>
      <trkpt lat="44.50956" lon="1.34446">
        <ele>296</ele>
        <time>2023-03-14T15:43:41Z</time>
      </trkpt>
      <trkpt lat="44.50952" lon="1.34373">
        <ele>292</ele>
        <time>2023-03-14T15:44:51Z</time>
      </trkpt>
      <trkpt lat="44.50894" lon="1.34358">
        <ele>284</ele>
        <time>2023-03-14T15:46:10Z</time>
      </trkpt>
      <trkpt lat="44.50779" lon="1.34269">
        <ele>244</ele>
        <time>2023-03-14T15:49:05Z</time>
      </trkpt>
      <trkpt lat="44.50594" lon="1.34064">
        <ele>166</ele>
        <time>2023-03-14T15:54:20Z</time>
      </trkpt>
      <trkpt lat="44.50604" lon="1.33936">
        <ele>144</ele>
        <time>2023-03-14T15:56:22Z</time>
      </trkpt>
      <trkpt lat="44.50643" lon="1.33971">
        <ele>149</ele>
        <time>2023-03-14T15:57:24Z</time>
      </trkpt>
      <trkpt lat="44.50698" lon="1.33991">
        <ele>151</ele>
        <time>2023-03-14T15:58:40Z</time>
      </trkpt>
      <trkpt lat="44.50757" lon="1.33997">
        <ele>151</ele>
        <time>2023-03-14T15:59:59Z</time>
      </trkpt>
      <trkpt lat="44.50791" lon="1.33999">
        <ele>152</ele>
        <time>2023-03-14T16:00:44Z</time>
      </trkpt>
      <trkpt lat="44.50824" lon="1.33986">
        <ele>153</ele>
        <time>2023-03-14T16:01:30Z</time>
      </trkpt>
      <trkpt lat="44.50922" lon="1.33927">
        <ele>154</ele>
        <time>2023-03-14T16:03:52Z</time>
      </trkpt>
      <trkpt lat="44.50988" lon="1.33946">
        <ele>164</ele>
        <time>2023-03-14T16:05:22Z</time>
      </trkpt>
      <trkpt lat="44.5102" lon="1.33959">
        <ele>172</ele>
        <time>2023-03-14T16:06:07Z</time>
      </trkpt>
      <trkpt lat="44.5106" lon="1.33948">
        <ele>184</ele>
        <time>2023-03-14T16:07:01Z</time>
      </trkpt>
      <trkpt lat="44.51082" lon="1.33771">
        <ele>215</ele>
        <time>2023-03-14T16:09:52Z</time>
      </trkpt>
      <trkpt lat="44.51045" lon="1.33671">
        <ele>226</ele>
        <time>2023-03-14T16:11:39Z</time>
      </trkpt>
      <trkpt lat="44.5097" lon="1.33423">
        <ele>258</ele>
        <time>2023-03-14T16:15:56Z</time>
      </trkpt>
      <trkpt lat="44.50992" lon="1.33411">
        <ele>262</ele>
        <time>2023-03-14T16:16:27Z</time>
      </trkpt>
      <trkpt lat="44.50978" lon="1.33378">
        <ele>263</ele>
        <time>2023-03-14T16:17:04Z</time>
      </trkpt>
      <trkpt lat="44.50983" lon="1.33322">
        <ele>265</ele>
        <time>2023-03-14T16:17:57Z</time>
      </trkpt>
      <trkpt lat="44.50793" lon="1.33181">
        <ele>273</ele>
        <time>2023-03-14T16:22:44Z</time>
      </trkpt>
      <trkpt lat="44.50724" lon="1.33208">
        <ele>273</ele>
        <time>2023-03-14T16:24:20Z</time>
      </trkpt>
      <trkpt lat="44.5062" lon="1.33249">
        <ele>264</ele>
        <time>2023-03-14T16:26:44Z</time>
      </trkpt>
      <trkpt lat="44.50593" lon="1.33282">
        <ele>258</ele>
        <time>2023-03-14T16:27:32Z</time>
      </trkpt>
      <trkpt lat="44.50494" lon="1.33284">
        <ele>227</ele>
        <time>2023-03-14T16:29:44Z</time>
      </trkpt>
      <trkpt lat="44.50381" lon="1.3329">
        <ele>182</ele>
        <time>2023-03-14T16:32:15Z</time>
      </trkpt>
      <trkpt lat="44.50354" lon="1.33264">
        <ele>173</ele>
        <time>2023-03-14T16:32:58Z</time>
      </trkpt>
      <trkpt lat="44.50328" lon="1.33263">
        <ele>165</ele>
        <time>2023-03-14T16:33:33Z</time>
      </trkpt>
      <trkpt lat="44.50242" lon="1.33324">
        <ele>146</ele>
        <time>2023-03-14T16:35:42Z</time>
      </trkpt>
      <trkpt lat="44.5017" lon="1.33348">
        <ele>132</ele>
        <time>2023-03-14T16:37:21Z</time>
      </trkpt>
      <trkpt lat="44.50078" lon="1.33347">
        <ele>131</ele>
        <time>2023-03-14T16:39:23Z</time>
      </trkpt>
      <trkpt lat="44.50194" lon="1.33182">
        <ele>145</ele>
        <time>2023-03-14T16:43:04Z</time>
      </trkpt>
      <trkpt lat="44.5021" lon="1.33117">
        <ele>151</ele>
        <time>2023-03-14T16:44:09Z</time>
      </trkpt>
      <trkpt lat="44.5034" lon="1.32956">
        <ele>153</ele>
        <time>2023-03-14T16:48:01Z</time>
      </trkpt>
      <trkpt lat="44.50403" lon="1.32848">
        <ele>154</ele>
        <time>2023-03-14T16:50:14Z</time>
      </trkpt>
      <trkpt lat="44.50499" lon="1.32698">
        <ele>159</ele>
        <time>2023-03-14T16:53:25Z</time>
      </trkpt>
      <trkpt lat="44.50544" lon="1.32615">
        <ele>167</ele>
        <time>2023-03-14T16:55:05Z</time>
      </trkpt>
      <trkpt lat="44.50573" lon="1.32636">
        <ele>164</ele>
        <time>2023-03-14T16:55:48Z</time>
      </trkpt>
      <trkpt lat="44.5059" lon="1.32686">
        <ele>162</ele>
        <time>2023-03-14T16:56:41Z</time>
      </trkpt>
      <trkpt lat="44.50575" lon="1.32765">
        <ele>165</ele>
        <time>2023-03-14T16:57:59Z</time>
      </trkpt>
      <trkpt lat="44.50606" lon="1.32757">
        <ele>169</ele>
        <time>2023-03-14T16:58:41Z</time>
      </trkpt>
      <trkpt lat="44.5073" lon="1.32801">
        <ele>202</ele>
        <time>2023-03-14T17:01:31Z</time>
      </trkpt>
      <trkpt lat="44.50803" lon="1.32812">
        <ele>215</ele>
        <time>2023-03-14T17:03:09Z</time>
      </trkpt>
      <trkpt lat="44.50851" lon="1.32815">
        <ele>222</ele>
        <time>2023-03-14T17:04:14Z</time>
      </trkpt>
      <trkpt lat="44.50903" lon="1.32786">
        <ele>224</ele>
        <time>2023-03-14T17:05:28Z</time>
      </trkpt>
      <trkpt lat="44.50945" lon="1.32724">
        <ele>226</ele>
        <time>2023-03-14T17:06:50Z</time>
      </trkpt>
      <trkpt lat="44.50992" lon="1.32561">
        <ele>247</ele>
        <time>2023-03-14T17:09:37Z</time>
      </trkpt>
      <trkpt lat="44.51049" lon="1.3255">
        <ele>246</ele>
        <time>2023-03-14T17:10:54Z</time>
      </trkpt>
      <trkpt lat="44.51114" lon="1.32436">
        <ele>261</ele>
        <time>2023-03-14T17:13:13Z</time>
      </trkpt>
      <trkpt lat="44.51208" lon="1.32349">
        <ele>263</ele>
        <time>2023-03-14T17:15:43Z</time>
      </trkpt>
      <trkpt lat="44.51264" lon="1.32288">
        <ele>266</ele>
        <time>2023-03-14T17:17:17Z</time>
      </trkpt>
      <trkpt lat="44.51308" lon="1.32237">
        <ele>272</ele>
        <time>2023-03-14T17:18:34Z</time>
      </trkpt>
      <trkpt lat="44.51397" lon="1.32199">
        <ele>277</ele>
        <time>2023-03-14T17:20:38Z</time>
      </trkpt>
      <trkpt lat="44.51418" lon="1.32166">
        <ele>280</ele>
        <time>2023-03-14T17:21:20Z</time>
      </trkpt>
      <trkpt lat="44.51414" lon="1.32139">
        <ele>280</ele>
        <time>2023-03-14T17:21:46Z</time>
      </trkpt>
      <trkpt lat="44.51462" lon="1.32079">
        <ele>281</ele>
        <time>2023-03-14T17:23:12Z</time>
      </trkpt>
      <trkpt lat="44.51524" lon="1.32022">
        <ele>280</ele>
        <time>2023-03-14T17:24:51Z</time>
      </trkpt>
      <trkpt lat="44.51581" lon="1.32011">
        <ele>279</ele>
        <time>2023-03-14T17:26:08Z</time>
      </trkpt>
      <trkpt lat="44.51692" lon="1.31907">
        <ele>275</ele>
        <time>2023-03-14T17:29:06Z</time>
      </trkpt>
      <trkpt lat="44.51708" lon="1.31827">
        <ele>277</ele>
        <time>2023-03-14T17:30:25Z</time>
      </trkpt>
      <trkpt lat="44.5182" lon="1.3166">
        <ele>268</ele>
        <time>2023-03-14T17:34:03Z</time>
      </trkpt>
      <trkpt lat="44.51909" lon="1.31484">
        <ele>261</ele>
        <time>2023-03-14T17:37:28Z</time>
      </trkpt>
      <trkpt lat="44.51857" lon="1.31378">
        <ele>260</ele>
        <time>2023-03-14T17:39:31Z</time>
      </trkpt>
      <trkpt lat="44.51796" lon="1.31337">
        <ele>265</ele>
        <time>2023-03-14T17:41:01Z</time>
      </trkpt>
      <trkpt lat="44.51772" lon="1.3115">
        <ele>261</ele>
        <time>2023-03-14T17:44:02Z</time>
      </trkpt>
      <trkpt lat="44.51747" lon="1.30979">
        <ele>248</ele>
        <time>2023-03-14T17:46:48Z</time>
      </trkpt>
      <trkpt lat="44.51682" lon="1.30823">
        <ele>246</ele>
        <time>2023-03-14T17:49:40Z</time>
      </trkpt>
      <trkpt lat="44.51717" lon="1.30656">
        <ele>240</ele>
        <time>2023-03-14T17:52:25Z</time>
      </trkpt>
      <trkpt lat="44.51765" lon="1.30588">
        <ele>237</ele>
        <time>2023-03-14T17:53:57Z</time>
      </trkpt>
      <trkpt lat="44.518" lon="1.30443">
        <ele>235</ele>
        <time>2023-03-14T17:56:22Z</time>
      </trkpt>
      <trkpt lat="44.51784" lon="1.30265">
        <ele>245</ele>
        <time>2023-03-14T17:59:13Z</time>
      </trkpt>
      <trkpt lat="44.51807" lon="1.30126">
        <ele>232</ele>
        <time>2023-03-14T18:01:29Z</time>
      </trkpt>
      <trkpt lat="44.51796" lon="1.30106">
        <ele>232</ele>
        <time>2023-03-14T18:01:53Z</time>
      </trkpt>
      <trkpt lat="44.51691" lon="1.30026">
        <ele>243</ele>
        <time>2023-03-14T18:04:32Z</time>
      </trkpt>
      <trkpt lat="44.51563" lon="1.29985">
        <ele>248</ele>
        <time>2023-03-14T18:07:27Z</time>
      </trkpt>
      <trkpt lat="44.51464" lon="1.30054">
        <ele>250</ele>
        <time>2023-03-14T18:09:55Z</time>
      </trkpt>
      <trkpt lat="44.51391" lon="1.30066">
        <ele>249</ele>
        <time>2023-03-14T18:11:33Z</time>
      </trkpt>
      <trkpt lat="44.51371" lon="1.29892">
        <ele>254</ele>
        <time>2023-03-14T18:14:21Z</time>
      </trkpt>
      <trkpt lat="44.51375" lon="1.29812">
        <ele>258</ele>
        <time>2023-03-14T18:15:37Z</time>
      </trkpt>
      <trkpt lat="44.51406" lon="1.297">
        <ele>263</ele>
        <time>2023-03-14T18:17:31Z</time>
      </trkpt>
      <trkpt lat="44.51398" lon="1.29604">
        <ele>266</ele>
        <time>2023-03-14T18:19:03Z</time>
      </trkpt>
      <trkpt lat="44.51371" lon="1.29564">
        <ele>265</ele>
        <time>2023-03-14T18:19:56Z</time>
      </trkpt>
      <trkpt lat="44.51381" lon="1.29552">
        <ele>265</ele>
        <time>2023-03-14T18:20:13Z</time>
      </trkpt>
      <trkpt lat="44.51359" lon="1.29485">
        <ele>263</ele>
        <time>2023-03-14T18:21:23Z</time>
      </trkpt>
      <trkpt lat="44.51322" lon="1.29414">
        <ele>261</ele>
        <time>2023-03-14T18:22:47Z</time>
      </trkpt>
      <trkpt lat="44.51297" lon="1.29288">
        <ele>269</ele>
        <time>2023-03-14T18:24:52Z</time>
      </trkpt>
      <trkpt lat="44.51276" lon="1.29157">
        <ele>275</ele>
        <time>2023-03-14T18:26:59Z</time>
      </trkpt>
      <trkpt lat="44.51241" lon="1.29083">
        <ele>276</ele>
        <time>2023-03-14T18:28:24Z</time>
      </trkpt>
      <trkpt lat="44.51098" lon="1.29254">
        <ele>284</ele>
        <time>2023-03-14T18:32:35Z</time>
      </trkpt>
      <trkpt lat="44.51009" lon="1.2931">
        <ele>284</ele>
        <time>2023-03-14T18:34:45Z</time>
      </trkpt>
      <trkpt lat="44.50881" lon="1.29307">
        <ele>283</ele>
        <time>2023-03-14T18:37:36Z</time>
      </trkpt>
      <trkpt lat="44.50802" lon="1.29365">
        <ele>279</ele>
        <time>2023-03-14T18:39:35Z</time>
      </trkpt>
      <trkpt lat="44.50754" lon="1.29234">
        <ele>272</ele>
        <time>2023-03-14T18:41:55Z</time>
      </trkpt>
      <trkpt lat="44.50713" lon="1.29176">
        <ele>266</ele>
        <time>2023-03-14T18:43:13Z</time>
      </trkpt>
      <trkpt lat="44.50657" lon="1.29167">
        <ele>264</ele>
        <time>2023-03-14T18:44:28Z</time>
      </trkpt>
      <trkpt lat="44.50596" lon="1.29187">
        <ele>268</ele>
        <time>2023-03-14T18:45:51Z</time>
      </trkpt>
      <trkpt lat="44.5049" lon="1.29158">
        <ele>272</ele>
        <time>2023-03-14T18:48:15Z</time>
      </trkpt>
      <trkpt lat="44.50447" lon="1.29174">
        <ele>272</ele>
        <time>2023-03-14T18:49:15Z</time>
      </trkpt>
      <trkpt lat="44.5041" lon="1.29212">
        <ele>271</ele>
        <time>2023-03-14T18:50:16Z</time>
      </trkpt>
      <trkpt lat="44.50384" lon="1.29234">
        <ele>269</ele>
        <time>2023-03-14T18:50:57Z</time>
      </trkpt>
      <trkpt lat="44.50351" lon="1.29255">
        <ele>267</ele>
        <time>2023-03-14T18:51:45Z</time>
      </trkpt>
      <trkpt lat="44.50338" lon="1.29275">
        <ele>265</ele>
        <time>2023-03-14T18:52:11Z</time>
      </trkpt>
      <trkpt lat="44.50247" lon="1.29319">
        <ele>258</ele>
        <time>2023-03-14T18:54:19Z</time>
      </trkpt>
      <trkpt lat="44.50215" lon="1.29334">
        <ele>260</ele>
        <time>2023-03-14T18:55:04Z</time>
      </trkpt>
      <trkpt lat="44.50167" lon="1.29328">
        <ele>264</ele>
        <time>2023-03-14T18:56:08Z</time>
      </trkpt>
      <trkpt lat="44.50112" lon="1.29324">
        <ele>266</ele>
        <time>2023-03-14T18:57:22Z</time>
      </trkpt>
      <trkpt lat="44.50062" lon="1.29331">
        <ele>266</ele>
        <time>2023-03-14T18:58:29Z</time>
      </trkpt>
      <trkpt lat="44.50021" lon="1.29361">
        <ele>261</ele>
        <time>2023-03-14T18:59:31Z</time>
      </trkpt>
      <trkpt lat="44.50044" lon="1.29584">
        <ele>256</ele>
        <time>2023-03-14T19:03:05Z</time>
      </trkpt>
      <trkpt lat="44.49971" lon="1.29566">
        <ele>252</ele>
        <time>2023-03-14T19:04:44Z</time>
      </trkpt>
      <trkpt lat="44.49931" lon="1.29576">
        <ele>249</ele>
        <time>2023-03-14T19:05:38Z</time>
      </trkpt>
      <trkpt lat="44.49793" lon="1.29631">
        <ele>248</ele>
        <time>2023-03-14T19:08:50Z</time>
      </trkpt>
      <trkpt lat="44.49664" lon="1.29708">
        <ele>247</ele>
        <time>2023-03-14T19:11:57Z</time>
      </trkpt>
      <trkpt lat="44.49673" lon="1.29796">
        <ele>242</ele>
        <time>2023-03-14T19:13:22Z</time>
      </trkpt>
      <trkpt lat="44.49712" lon="1.29906">
        <ele>245</ele>
        <time>2023-03-14T19:15:18Z</time>
      </trkpt>
      <trkpt lat="44.49713" lon="1.29953">
        <ele>248</ele>
        <time>2023-03-14T19:16:03Z</time>
      </trkpt>
      <trkpt lat="44.49682" lon="1.29983">
        <ele>254</ele>
        <time>2023-03-14T19:16:53Z</time>
      </trkpt>
      <trkpt lat="44.49502" lon="1.30072">
        <ele>255</ele>
        <time>2023-03-14T19:21:08Z</time>
      </trkpt>
      <trkpt lat="44.49566" lon="1.30221">
        <ele>259</ele>
        <time>2023-03-14T19:23:54Z</time>
      </trkpt>
      <trkpt lat="44.49452" lon="1.30588">
        <ele>254</ele>
        <time>2023-03-14T19:30:15Z</time>
      </trkpt>
      <trkpt lat="44.49562" lon="1.30638">
        <ele>248</ele>
        <time>2023-03-14T19:32:49Z</time>
      </trkpt>
      <trkpt lat="44.49622" lon="1.30674">
        <ele>243</ele>
        <time>2023-03-14T19:34:16Z</time>
      </trkpt>
      <trkpt lat="44.49682" lon="1.30666">
        <ele>254</ele>
        <time>2023-03-14T19:35:37Z</time>
      </trkpt>
      <trkpt lat="44.4972" lon="1.30683">
        <ele>255</ele>
        <time>2023-03-14T19:36:30Z</time>
      </trkpt>
      <trkpt lat="44.49717" lon="1.30695">
        <ele>252</ele>
        <time>2023-03-14T19:36:42Z</time>
      </trkpt>
      <trkpt lat="44.49778" lon="1.30775">
        <ele>244</ele>
        <time>2023-03-14T19:38:33Z</time>
      </trkpt>
      <trkpt lat="44.49786" lon="1.30767">
        <ele>247</ele>
        <time>2023-03-14T19:38:47Z</time>
      </trkpt>
      <trkpt lat="44.49819" lon="1.30821">
        <ele>245</ele>
        <time>2023-03-14T19:39:54Z</time>
      </trkpt>
      <trkpt lat="44.49836" lon="1.30845">
        <ele>245</ele>
        <time>2023-03-14T19:40:26Z</time>
      </trkpt>
      <trkpt lat="44.49855" lon="1.30864">
        <ele>243</ele>
        <time>2023-03-14T19:40:58Z</time>
      </trkpt>
      <trkpt lat="44.49957" lon="1.30962">
        <ele>247</ele>
        <time>2023-03-14T19:43:43Z</time>
      </trkpt>
      <trkpt lat="44.49993" lon="1.30961">
        <ele>257</ele>
        <time>2023-03-14T19:44:31Z</time>
      </trkpt>
      <trkpt lat="44.50039" lon="1.31106">
        <ele>235</ele>
        <time>2023-03-14T19:47:02Z</time>
      </trkpt>
      <trkpt lat="44.50076" lon="1.31158">
        <ele>240</ele>
        <time>2023-03-14T19:48:12Z</time>
      </trkpt>
      <trkpt lat="44.50105" lon="1.31231">
        <ele>230</ele>
        <time>2023-03-14T19:49:31Z</time>
      </trkpt>
      <trkpt lat="44.50185" lon="1.31365">
        <ele>239</ele>
        <time>2023-03-14T19:52:17Z</time>
      </trkpt>
      <trkpt lat="44.50228" lon="1.31416">
        <ele>243</ele>
        <time>2023-03-14T19:53:33Z</time>
      </trkpt>
      <trkpt lat="44.50232" lon="1.31541">
        <ele>237</ele>
        <time>2023-03-14T19:55:32Z</time>
      </trkpt>
      <trkpt lat="44.50267" lon="1.31683">
        <ele>242</ele>
        <time>2023-03-14T19:57:55Z</time>
      </trkpt>
      <trkpt lat="44.503" lon="1.31855">
        <ele>245</ele>
        <time>2023-03-14T20:00:44Z</time>
      </trkpt>
      <trkpt lat="44.50285" lon="1.31943">
        <ele>236</ele>
        <time>2023-03-14T20:02:10Z</time>
      </trkpt>
      <trkpt lat="44.50295" lon="1.32068">
        <ele>241</ele>
        <time>2023-03-14T20:04:10Z</time>
      </trkpt>
      <trkpt lat="44.50273" lon="1.32138">
        <ele>231</ele>
        <time>2023-03-14T20:05:23Z</time>
      </trkpt>
      <trkpt lat="44.50248" lon="1.32208">
        <ele>220</ele>
        <time>2023-03-14T20:06:37Z</time>
      </trkpt>
      <trkpt lat="44.50229" lon="1.3229">
        <ele>208</ele>
        <time>2023-03-14T20:07:59Z</time>
      </trkpt>
      <trkpt lat="44.50249" lon="1.32308">
        <ele>218</ele>
        <time>2023-03-14T20:08:31Z</time>
      </trkpt>
      <trkpt lat="44.50233" lon="1.32327">
        <ele>211</ele>
        <time>2023-03-14T20:08:59Z</time>
      </trkpt>
      <trkpt lat="44.50216" lon="1.32363">
        <ele>210</ele>
        <time>2023-03-14T20:09:40Z</time>
      </trkpt>
      <trkpt lat="44.50218" lon="1.32442">
        <ele>225</ele>
        <time>2023-03-14T20:10:55Z</time>
      </trkpt>
      <trkpt lat="44.5019" lon="1.32517">
        <ele>235</ele>
        <time>2023-03-14T20:12:16Z</time>
      </trkpt>
      <trkpt lat="44.50179" lon="1.32571">
        <ele>243</ele>
        <time>2023-03-14T20:13:09Z</time>
      </trkpt>
      <trkpt lat="44.50131" lon="1.32625">
        <ele>235</ele>
        <time>2023-03-14T20:14:32Z</time>
      </trkpt>
      <trkpt lat="44.50069" lon="1.32724">
        <ele>236</ele>
        <time>2023-03-14T20:16:37Z</time>
      </trkpt>
      <trkpt lat="44.49965" lon="1.32887">
        <ele>229</ele>
        <time>2023-03-14T20:20:05Z</time>
      </trkpt>
      <trkpt lat="44.49783" lon="1.3306">
        <ele>207</ele>
        <time>2023-03-14T20:24:59Z</time>
      </trkpt>
      <trkpt lat="44.49712" lon="1.33112">
        <ele>195</ele>
        <time>2023-03-14T20:26:45Z</time>
      </trkpt>
      <trkpt lat="44.49625" lon="1.33127">
        <ele>177</ele>
        <time>2023-03-14T20:28:42Z</time>
      </trkpt>
      <trkpt lat="44.49597" lon="1.33144">
        <ele>170</ele>
        <time>2023-03-14T20:29:23Z</time>
      </trkpt>
      <trkpt lat="44.49549" lon="1.33115">
        <ele>153</ele>
        <time>2023-03-14T20:30:33Z</time>
      </trkpt>
      <trkpt lat="44.49428" lon="1.33126">
        <ele>116</ele>
        <time>2023-03-14T20:33:15Z</time>
      </trkpt>
      <trkpt lat="44.49448" lon="1.33214">
        <ele>120</ele>
        <time>2023-03-14T20:34:43Z</time>
      </trkpt>
      <trkpt lat="44.49517" lon="1.33301">
        <ele>122</ele>
        <time>2023-03-14T20:36:46Z</time>
      </trkpt>
      <trkpt lat="44.49555" lon="1.33321">
        <ele>123</ele>
        <time>2023-03-14T20:37:41Z</time>
      </trkpt>
      <trkpt lat="44.49621" lon="1.33359">
        <ele>123</ele>
        <time>2023-03-14T20:39:16Z</time>
      </trkpt>
      <trkpt lat="44.49775" lon="1.33363">
        <ele>128</ele>
        <time>2023-03-14T20:42:41Z</time>
      </trkpt>
      <trkpt lat="44.49766" lon="1.33446">
        <ele>128</ele>
        <time>2023-03-14T20:44:01Z</time>
      </trkpt>
      <trkpt lat="44.49657" lon="1.33448">
        <ele>125</ele>
        <time>2023-03-14T20:46:27Z</time>
      </trkpt>
      <trkpt lat="44.4956" lon="1.33482">
        <ele>131</ele>
        <time>2023-03-14T20:48:40Z</time>
      </trkpt>
      <trkpt lat="44.49482" lon="1.33492">
        <ele>135</ele>
        <time>2023-03-14T20:50:25Z</time>
      </trkpt>
      <trkpt lat="44.49451" lon="1.33552">
        <ele>138</ele>
        <time>2023-03-14T20:51:35Z</time>
      </trkpt>
      <trkpt lat="44.49419" lon="1.33448">
        <ele>134</ele>
        <time>2023-03-14T20:53:23Z</time>
      </trkpt>
      <trkpt lat="44.49401" lon="1.33415">
        <ele>131</ele>
        <time>2023-03-14T20:54:03Z</time>
      </trkpt>
      <trkpt lat="44.49367" lon="1.33373">
        <ele>127</ele>
        <time>2023-03-14T20:55:03Z</time>
      </trkpt>
      <trkpt lat="44.49312" lon="1.33251">
        <ele>120</ele>
        <time>2023-03-14T20:57:20Z</time>
      </trkpt>
      <trkpt lat="44.49242" lon="1.3327">
        <ele>119</ele>
        <time>2023-03-14T20:58:56Z</time>
      </trkpt>
      <trkpt lat="44.49258" lon="1.33221">
        <ele>117</ele>
        <time>2023-03-14T20:59:47Z</time>
      </trkpt>
      <trkpt lat="44.49272" lon="1.3309">
        <ele>110</ele>
        <time>2023-03-14T21:01:53Z</time>
      </trkpt>
      <trkpt lat="44.49266" lon="1.33067">
        <ele>109</ele>
        <time>2023-03-14T21:02:16Z</time>
      </trkpt>
    </trkseg>
  </trk>
</gpx>